Amston, CT

4:00 PM EDT on April 28, 2017 (GMT -0400)
Amston Lake | | Change Station

Elev 630 ft 41.62 °N, 72.33 °W | Updated 16 seconds ago

Clear
Clear
85.3 °F
Feels Like 87 °F
N
1.7
Wind Variable Wind from SW
Gusts 3.7 mph

Today
High -- | Low -- °F
--% Chance of Precip.
Yesterday
High -- | Low -- °F
Precip. -- in
Pressure 29.94 in
Visibility 10.0 miles
Clouds Few 6000 ft
Heat Index 87 °F
Dew Point 64 °F
Humidity 49%
Rainfall 0.00 in
Snow Depth Not available.
5:49 AM 7:44 PM
Waxing Crescent, 8% visible
METAR KIJD 281952Z AUTO VRB06KT 10SM FEW060 28/14 A2995 RMK AO2 SLP139 T02830144
Pressure 29.94 in
Visibility 10.0 miles
Clouds Few 6000 ft
Heat Index 87 °F
Dew Point 64 °F
Humidity 49%
Rainfall 0.00 in
Snow Depth Not available.
5:49 AM 7:44 PM
Waxing Crescent, 8% visible
METAR KIJD 281952Z AUTO VRB06KT 10SM FEW060 28/14 A2995 RMK AO2 SLP139 T02830144

Get Severe Weather Alerts

Thanks for signing up!

Be on the lookout for a verification email in your inbox.

You'll start receiving the daily forecast at 8 AM.

×

10-Day Weather Forecast

Almanac

Astronomy

Apr. 28, 2017 Rise Set
Actual Time
Civil Twilight
Nautical Twilight
Astronomical Twilight
Moon
Length of Visible Light
Length of Day
Tomorrow will be .
, % of the Moon is Illuminated

Today's Extremes

State Highs State Lows

Community

WunderPhotos

WunderBlog® & News

Nearby

Air Quality

  Air Quality AQ Index Pollutant
Not available.

Snow Depth

Station Depth Elevation

Earthquake Activity

City Distance Mag. Time & Date
Minimum magnitude displayed is 2.5.

Coastal Water Temperatures

Place Temperature

Stations

Nearby Weather Stations

Station Location Temp. Windchill Dew Point Humidity Wind Precip. Elev Updated Type
                   

Watches & Warnings

There are currently no watches in effect.